BTK6576 WIII-WARR
Flight info
| Callsign | BTK6576 |
|---|---|
| Flight time | 0h 59m |
| Altitude | 33000 |
| Route | CA T3 BA |
| Aircraft | A320/M-SDE3FGHIRWY/LB1 |
Departure
| Time | 2026-05-09 05:51 |
|---|---|
| Airport | Soekarno-Hatta International Airport (WIII) |
Arrival
| Time | 2026-05-09 06:50 |
|---|---|
| Airport | Juanda International Airport (WARR) |
| Time | Latitude | Longitude | Altitude | Speed | Heading |
|---|---|---|---|---|---|
| 2026-05-09 05:30 | -6.12236 | 106.64928 | 38 ft | 0 kts | 168° |
| 2026-05-09 05:38 | -6.12232 | 106.64927 | 38 ft | 2 kts | 167° |
| 2026-05-09 05:38 | -6.12216 | 106.64924 | 37 ft | 2 kts | 168° |
| 2026-05-09 05:38 | -6.12200 | 106.64920 | 34 ft | 2 kts | 168° |
| 2026-05-09 05:38 | -6.12183 | 106.64917 | 34 ft | 2 kts | 173° |
| 2026-05-09 05:39 | -6.12167 | 106.64917 | 35 ft | 2 kts | 200° |
| 2026-05-09 05:39 | -6.12153 | 106.64925 | 37 ft | 2 kts | 236° |
| 2026-05-09 05:39 | -6.12150 | 106.64930 | 37 ft | 0 kts | 246° |
| 2026-05-09 05:43 | -6.12154 | 106.64919 | 37 ft | 4 kts | 247° |
| 2026-05-09 05:44 | -6.12170 | 106.64882 | 38 ft | 7 kts | 247° |
| 2026-05-09 05:44 | -6.12190 | 106.64831 | 38 ft | 9 kts | 250° |
| 2026-05-09 05:44 | -6.12201 | 106.64766 | 38 ft | 10 kts | 287° |
| 2026-05-09 05:44 | -6.12137 | 106.64723 | 38 ft | 13 kts | 338° |
| 2026-05-09 05:45 | -6.12051 | 106.64689 | 39 ft | 14 kts | 338° |
| 2026-05-09 05:45 | -6.12001 | 106.64624 | 39 ft | 14 kts | 259° |
| 2026-05-09 05:45 | -6.12039 | 106.64528 | 38 ft | 16 kts | 248° |
| 2026-05-09 05:45 | -6.12081 | 106.64422 | 38 ft | 16 kts | 248° |
| 2026-05-09 05:46 | -6.12124 | 106.64313 | 39 ft | 15 kts | 248° |
| 2026-05-09 05:46 | -6.12164 | 106.64213 | 39 ft | 15 kts | 248° |
| 2026-05-09 05:46 | -6.12203 | 106.64117 | 37 ft | 13 kts | 248° |
| 2026-05-09 05:46 | -6.12235 | 106.64035 | 38 ft | 8 kts | 248° |
| 2026-05-09 05:47 | -6.12245 | 106.64012 | 39 ft | 0 kts | 248° |
| 2026-05-09 05:47 | -6.12249 | 106.64002 | 37 ft | 3 kts | 248° |
| 2026-05-09 05:48 | -6.12257 | 106.63976 | 39 ft | 5 kts | 257° |
| 2026-05-09 05:48 | -6.12256 | 106.63936 | 40 ft | 7 kts | 287° |
| 2026-05-09 05:48 | -6.12235 | 106.63908 | 39 ft | 0 kts | 315° |
| 2026-05-09 05:48 | -6.12234 | 106.63907 | 39 ft | 1 kts | 316° |
| 2026-05-09 05:49 | -6.12226 | 106.63901 | 40 ft | 2 kts | 324° |
| 2026-05-09 05:49 | -6.12196 | 106.63890 | 41 ft | 11 kts | 352° |
| 2026-05-09 05:49 | -6.12118 | 106.63907 | 41 ft | 10 kts | 4° |
| 2026-05-09 05:49 | -6.12080 | 106.63937 | 41 ft | 2 kts | 66° |
| 2026-05-09 05:50 | -6.12074 | 106.63951 | 40 ft | 11 kts | 68° |
| 2026-05-09 05:50 | -6.11957 | 106.64242 | 38 ft | 80 kts | 69° |
| 2026-05-09 05:50 | -6.11674 | 106.64952 | 43 ft | 135 kts | 68° |
| 2026-05-09 05:51 | -6.11275 | 106.65955 | 221 ft | 163 kts | 66° |
| 2026-05-09 05:51 | -6.10856 | 106.67008 | 854 ft | 163 kts | 69° |
| 2026-05-09 05:51 | -6.10332 | 106.68020 | 1443 ft | 167 kts | 52° |
| 2026-05-09 05:51 | -6.09521 | 106.68955 | 1728 ft | 189 kts | 46° |
| 2026-05-09 05:52 | -6.08545 | 106.69961 | 2012 ft | 214 kts | 46° |
| 2026-05-09 05:52 | -6.07441 | 106.71087 | 2418 ft | 238 kts | 46° |
| 2026-05-09 05:52 | -6.06232 | 106.72331 | 2947 ft | 256 kts | 47° |
| 2026-05-09 05:52 | -6.04981 | 106.73634 | 3800 ft | 261 kts | 46° |
| 2026-05-09 05:53 | -6.03718 | 106.74960 | 4674 ft | 265 kts | 47° |
| 2026-05-09 05:53 | -6.02439 | 106.76309 | 5514 ft | 269 kts | 47° |
| 2026-05-09 05:53 | -6.01146 | 106.77677 | 6374 ft | 272 kts | 47° |
| 2026-05-09 05:53 | -5.99839 | 106.79064 | 7169 ft | 275 kts | 47° |
| 2026-05-09 05:54 | -5.98719 | 106.80629 | 7939 ft | 279 kts | 65° |
| 2026-05-09 05:54 | -5.98192 | 106.82511 | 8693 ft | 284 kts | 85° |
| 2026-05-09 05:54 | -5.98352 | 106.84494 | 9447 ft | 289 kts | 105° |
| 2026-05-09 05:54 | -5.99000 | 106.86421 | 10146 ft | 294 kts | 108° |
| 2026-05-09 05:55 | -5.99698 | 106.88427 | 10395 ft | 316 kts | 108° |
| 2026-05-09 05:55 | -6.00447 | 106.90585 | 10557 ft | 337 kts | 108° |
| 2026-05-09 05:55 | -6.01225 | 106.92846 | 11015 ft | 346 kts | 108° |
| 2026-05-09 05:55 | -6.02010 | 106.95143 | 11613 ft | 350 kts | 108° |
| 2026-05-09 05:56 | -6.02802 | 106.97461 | 12228 ft | 353 kts | 108° |
| 2026-05-09 05:56 | -6.03604 | 106.99803 | 12718 ft | 356 kts | 108° |
| 2026-05-09 05:56 | -6.04409 | 107.02156 | 12839 ft | 356 kts | 108° |
| 2026-05-09 05:56 | -6.05205 | 107.04480 | 12874 ft | 357 kts | 108° |
| 2026-05-09 05:57 | -6.06031 | 107.06883 | 13435 ft | 360 kts | 109° |
| 2026-05-09 05:57 | -6.06837 | 107.09234 | 14019 ft | 362 kts | 109° |
| 2026-05-09 05:57 | -6.07660 | 107.11634 | 14544 ft | 365 kts | 109° |
| 2026-05-09 05:57 | -6.08486 | 107.14053 | 15072 ft | 368 kts | 109° |
| 2026-05-09 05:58 | -6.09320 | 107.16498 | 15586 ft | 371 kts | 109° |
| 2026-05-09 05:58 | -6.10190 | 107.18948 | 16105 ft | 374 kts | 111° |
| 2026-05-09 05:58 | -6.11175 | 107.21379 | 16608 ft | 377 kts | 114° |
| 2026-05-09 05:58 | -6.12241 | 107.23801 | 17113 ft | 381 kts | 115° |
| 2026-05-09 05:59 | -6.13346 | 107.26229 | 17625 ft | 384 kts | 115° |
| 2026-05-09 05:59 | -6.14464 | 107.28680 | 18131 ft | 387 kts | 115° |
| 2026-05-09 05:59 | -6.15580 | 107.31155 | 18576 ft | 391 kts | 115° |
| 2026-05-09 05:59 | -6.16689 | 107.33658 | 19020 ft | 394 kts | 114° |
| 2026-05-09 06:00 | -6.17794 | 107.36186 | 19473 ft | 397 kts | 114° |
| 2026-05-09 06:00 | -6.18904 | 107.38738 | 19939 ft | 400 kts | 114° |
| 2026-05-09 06:00 | -6.20020 | 107.41307 | 20400 ft | 403 kts | 114° |
| 2026-05-09 06:00 | -6.21146 | 107.43896 | 20875 ft | 406 kts | 114° |
| 2026-05-09 06:01 | -6.22281 | 107.46503 | 21345 ft | 409 kts | 114° |
| 2026-05-09 06:01 | -6.23424 | 107.49128 | 21785 ft | 412 kts | 114° |
| 2026-05-09 06:01 | -6.24577 | 107.51773 | 22229 ft | 414 kts | 115° |
| 2026-05-09 06:01 | -6.25736 | 107.54434 | 22663 ft | 417 kts | 115° |
| 2026-05-09 06:02 | -6.26901 | 107.57114 | 23069 ft | 420 kts | 115° |
| 2026-05-09 06:02 | -6.28073 | 107.59811 | 23463 ft | 423 kts | 115° |
| 2026-05-09 06:02 | -6.29256 | 107.62524 | 23789 ft | 425 kts | 115° |
| 2026-05-09 06:02 | -6.30445 | 107.65255 | 24125 ft | 427 kts | 115° |
| 2026-05-09 06:03 | -6.31637 | 107.67996 | 24457 ft | 429 kts | 114° |
| 2026-05-09 06:03 | -6.32837 | 107.70756 | 24787 ft | 432 kts | 114° |
| 2026-05-09 06:03 | -6.34040 | 107.73530 | 25108 ft | 434 kts | 114° |
| 2026-05-09 06:03 | -6.35248 | 107.76315 | 25423 ft | 436 kts | 114° |
| 2026-05-09 06:04 | -6.36466 | 107.79114 | 25731 ft | 438 kts | 114° |
| 2026-05-09 06:04 | -6.37689 | 107.81925 | 26050 ft | 440 kts | 114° |
| 2026-05-09 06:04 | -6.38919 | 107.84750 | 26357 ft | 442 kts | 114° |
| 2026-05-09 06:04 | -6.40153 | 107.87585 | 26651 ft | 444 kts | 114° |
| 2026-05-09 06:05 | -6.41394 | 107.90437 | 26944 ft | 446 kts | 114° |
| 2026-05-09 06:05 | -6.42639 | 107.93299 | 27232 ft | 448 kts | 114° |
| 2026-05-09 06:05 | -6.43886 | 107.96175 | 27528 ft | 449 kts | 114° |
| 2026-05-09 06:05 | -6.45142 | 107.99061 | 27801 ft | 451 kts | 114° |
| 2026-05-09 06:06 | -6.46402 | 108.01957 | 28078 ft | 453 kts | 114° |
| 2026-05-09 06:06 | -6.47665 | 108.04865 | 28371 ft | 455 kts | 114° |
| 2026-05-09 06:06 | -6.48935 | 108.07788 | 28654 ft | 457 kts | 114° |
| 2026-05-09 06:06 | -6.50209 | 108.10726 | 28928 ft | 459 kts | 114° |
| 2026-05-09 06:07 | -6.51488 | 108.13678 | 29196 ft | 461 kts | 114° |
| 2026-05-09 06:07 | -6.52769 | 108.16638 | 29459 ft | 463 kts | 114° |
| 2026-05-09 06:07 | -6.54062 | 108.19615 | 29721 ft | 465 kts | 114° |
| 2026-05-09 06:07 | -6.55360 | 108.22596 | 30062 ft | 465 kts | 114° |
| 2026-05-09 06:08 | -6.56652 | 108.25570 | 30402 ft | 464 kts | 114° |
| 2026-05-09 06:08 | -6.57936 | 108.28539 | 30743 ft | 462 kts | 114° |
| 2026-05-09 06:08 | -6.59217 | 108.31506 | 30982 ft | 465 kts | 114° |
| 2026-05-09 06:08 | -6.60510 | 108.34496 | 31091 ft | 469 kts | 114° |
| 2026-05-09 06:09 | -6.61816 | 108.37515 | 31209 ft | 472 kts | 114° |
| 2026-05-09 06:09 | -6.63128 | 108.40558 | 31329 ft | 475 kts | 113° |
| 2026-05-09 06:09 | -6.65771 | 108.46679 | 31563 ft | 479 kts | 114° |
| 2026-05-09 06:10 | -6.67102 | 108.49759 | 31682 ft | 481 kts | 114° |
| 2026-05-09 06:10 | -6.68436 | 108.52845 | 31803 ft | 482 kts | 114° |
| 2026-05-09 06:10 | -6.69629 | 108.55993 | 31929 ft | 483 kts | 106° |
| 2026-05-09 06:10 | -6.70323 | 108.59294 | 32071 ft | 483 kts | 99° |
| 2026-05-09 06:11 | -6.70834 | 108.62630 | 32227 ft | 483 kts | 99° |
| 2026-05-09 06:11 | -6.71171 | 108.64840 | 32335 ft | 482 kts | 99° |
| 2026-05-09 06:11 | -6.71679 | 108.68171 | 32503 ft | 482 kts | 99° |
| 2026-05-09 06:11 | -6.72359 | 108.72626 | 32747 ft | 481 kts | 99° |
| 2026-05-09 06:12 | -6.73208 | 108.78161 | 32847 ft | 481 kts | 99° |
| 2026-05-09 06:12 | -6.74232 | 108.84810 | 32852 ft | 481 kts | 99° |
| 2026-05-09 06:13 | -6.75253 | 108.91458 | 32850 ft | 481 kts | 99° |
| 2026-05-09 06:13 | -6.76273 | 108.98117 | 32847 ft | 482 kts | 99° |
| 2026-05-09 06:14 | -6.77297 | 109.04778 | 32846 ft | 482 kts | 99° |
| 2026-05-09 06:14 | -6.78320 | 109.11447 | 32840 ft | 482 kts | 99° |
| 2026-05-09 06:15 | -6.79331 | 109.18117 | 32846 ft | 482 kts | 99° |
| 2026-05-09 06:15 | -6.80341 | 109.24785 | 32842 ft | 482 kts | 99° |
| 2026-05-09 06:16 | -6.81358 | 109.31456 | 32844 ft | 482 kts | 99° |
| 2026-05-09 06:16 | -6.82380 | 109.38129 | 32842 ft | 483 kts | 99° |
| 2026-05-09 06:17 | -6.83397 | 109.44806 | 32846 ft | 483 kts | 99° |
| 2026-05-09 06:17 | -6.84411 | 109.51490 | 32846 ft | 483 kts | 99° |
| 2026-05-09 06:18 | -6.85427 | 109.58172 | 32852 ft | 483 kts | 99° |
| 2026-05-09 06:18 | -6.86442 | 109.64859 | 32845 ft | 484 kts | 99° |
| 2026-05-09 06:19 | -6.87465 | 109.71551 | 32849 ft | 484 kts | 99° |
| 2026-05-09 06:19 | -6.88473 | 109.78249 | 32847 ft | 484 kts | 98° |
| 2026-05-09 06:20 | -6.89476 | 109.84948 | 32834 ft | 484 kts | 98° |
| 2026-05-09 06:20 | -6.90477 | 109.91579 | 32837 ft | 484 kts | 98° |
| 2026-05-09 06:21 | -6.91492 | 109.98272 | 32831 ft | 484 kts | 99° |
| 2026-05-09 06:21 | -6.92500 | 110.04928 | 32828 ft | 484 kts | 98° |
| 2026-05-09 06:22 | -6.93510 | 110.11625 | 32820 ft | 485 kts | 98° |
| 2026-05-09 06:22 | -6.94516 | 110.18338 | 32815 ft | 485 kts | 98° |
| 2026-05-09 06:23 | -6.95519 | 110.25046 | 32817 ft | 485 kts | 98° |
| 2026-05-09 06:23 | -6.96534 | 110.31755 | 32823 ft | 485 kts | 98° |
| 2026-05-09 06:24 | -6.97466 | 110.38470 | 32813 ft | 485 kts | 93° |
| 2026-05-09 06:24 | -6.97600 | 110.45248 | 32817 ft | 484 kts | 91° |
| 2026-05-09 06:25 | -6.97723 | 110.52025 | 32807 ft | 484 kts | 91° |
| 2026-05-09 06:25 | -6.97849 | 110.58799 | 32810 ft | 484 kts | 91° |
| 2026-05-09 06:26 | -6.97970 | 110.65572 | 32805 ft | 484 kts | 91° |
| 2026-05-09 06:26 | -6.98090 | 110.72352 | 32803 ft | 484 kts | 91° |
| 2026-05-09 06:27 | -6.98206 | 110.79127 | 32799 ft | 484 kts | 91° |
| 2026-05-09 06:27 | -6.98327 | 110.85909 | 32796 ft | 485 kts | 91° |
| 2026-05-09 06:28 | -6.98440 | 110.92647 | 32247 ft | 481 kts | 91° |
| 2026-05-09 06:28 | -6.98496 | 110.95969 | 32005 ft | 468 kts | 91° |
| 2026-05-09 06:28 | -6.98552 | 110.99203 | 31765 ft | 458 kts | 91° |
| 2026-05-09 06:29 | -6.98607 | 111.02389 | 31526 ft | 454 kts | 91° |
| 2026-05-09 06:29 | -6.98661 | 111.05555 | 31288 ft | 452 kts | 91° |
| 2026-05-09 06:29 | -6.98718 | 111.08719 | 31058 ft | 452 kts | 91° |
| 2026-05-09 06:29 | -6.98772 | 111.11876 | 30826 ft | 452 kts | 91° |
| 2026-05-09 06:30 | -6.98823 | 111.15045 | 30338 ft | 453 kts | 91° |
| 2026-05-09 06:30 | -6.98872 | 111.18208 | 29693 ft | 451 kts | 91° |
| 2026-05-09 06:30 | -6.98924 | 111.21357 | 29056 ft | 448 kts | 91° |
| 2026-05-09 06:30 | -6.98977 | 111.24484 | 28454 ft | 445 kts | 91° |
| 2026-05-09 06:31 | -6.99033 | 111.27580 | 27850 ft | 442 kts | 91° |
| 2026-05-09 06:31 | -6.99087 | 111.30650 | 27451 ft | 434 kts | 91° |
| 2026-05-09 06:31 | -6.99138 | 111.33638 | 27110 ft | 419 kts | 91° |
| 2026-05-09 06:31 | -6.99184 | 111.36540 | 26390 ft | 411 kts | 91° |
| 2026-05-09 06:32 | -6.99231 | 111.39395 | 25657 ft | 406 kts | 92° |
| 2026-05-09 06:32 | -6.99471 | 111.42208 | 24996 ft | 402 kts | 101° |
| 2026-05-09 06:32 | -7.00118 | 111.44896 | 24473 ft | 400 kts | 107° |
| 2026-05-09 06:33 | -7.01643 | 111.50274 | 23429 ft | 402 kts | 107° |
| 2026-05-09 06:33 | -7.02406 | 111.52969 | 23095 ft | 397 kts | 107° |
| 2026-05-09 06:33 | -7.03155 | 111.55620 | 22767 ft | 391 kts | 107° |
| 2026-05-09 06:34 | -7.04629 | 111.60835 | 21942 ft | 384 kts | 107° |
| 2026-05-09 06:34 | -7.05361 | 111.63411 | 21508 ft | 382 kts | 107° |
| 2026-05-09 06:34 | -7.06087 | 111.65968 | 21077 ft | 379 kts | 107° |
| 2026-05-09 06:34 | -7.06805 | 111.68509 | 20626 ft | 374 kts | 107° |
| 2026-05-09 06:35 | -7.07510 | 111.71007 | 19864 ft | 369 kts | 107° |
| 2026-05-09 06:35 | -7.08208 | 111.73483 | 19098 ft | 366 kts | 107° |
| 2026-05-09 06:35 | -7.08901 | 111.75935 | 18521 ft | 364 kts | 107° |
| 2026-05-09 06:35 | -7.09594 | 111.78381 | 17998 ft | 363 kts | 107° |
| 2026-05-09 06:36 | -7.10284 | 111.80813 | 17462 ft | 360 kts | 107° |
| 2026-05-09 06:36 | -7.10971 | 111.83237 | 16943 ft | 361 kts | 107° |
| 2026-05-09 06:36 | -7.11659 | 111.85663 | 16462 ft | 359 kts | 107° |
| 2026-05-09 06:36 | -7.12334 | 111.88048 | 16375 ft | 353 kts | 107° |
| 2026-05-09 06:37 | -7.12997 | 111.90392 | 16255 ft | 353 kts | 107° |
| 2026-05-09 06:37 | -7.13666 | 111.92767 | 16099 ft | 352 kts | 107° |
| 2026-05-09 06:37 | -7.14336 | 111.95143 | 15951 ft | 343 kts | 107° |
| 2026-05-09 06:37 | -7.14967 | 111.97382 | 15830 ft | 332 kts | 107° |
| 2026-05-09 06:38 | -7.15599 | 111.99590 | 15656 ft | 325 kts | 109° |
| 2026-05-09 06:38 | -7.16446 | 112.01702 | 15247 ft | 328 kts | 114° |
| 2026-05-09 06:38 | -7.17348 | 112.03813 | 14936 ft | 323 kts | 114° |
| 2026-05-09 06:38 | -7.18229 | 112.05863 | 14421 ft | 317 kts | 114° |
| 2026-05-09 06:39 | -7.19100 | 112.07891 | 13830 ft | 314 kts | 114° |
| 2026-05-09 06:39 | -7.19961 | 112.09898 | 13287 ft | 311 kts | 114° |
| 2026-05-09 06:39 | -7.20816 | 112.11899 | 12802 ft | 310 kts | 114° |
| 2026-05-09 06:39 | -7.21664 | 112.13886 | 12345 ft | 308 kts | 114° |
| 2026-05-09 06:40 | -7.22507 | 112.15860 | 11993 ft | 307 kts | 114° |
| 2026-05-09 06:40 | -7.23353 | 112.17835 | 11578 ft | 308 kts | 114° |
| 2026-05-09 06:40 | -7.24200 | 112.19814 | 11157 ft | 309 kts | 113° |
| 2026-05-09 06:40 | -7.25040 | 112.21778 | 10947 ft | 302 kts | 113° |
| 2026-05-09 06:41 | -7.25867 | 112.23708 | 10669 ft | 299 kts | 113° |
| 2026-05-09 06:41 | -7.26687 | 112.25627 | 10358 ft | 297 kts | 113° |
| 2026-05-09 06:41 | -7.27501 | 112.27533 | 10040 ft | 296 kts | 113° |
| 2026-05-09 06:41 | -7.28307 | 112.29420 | 9738 ft | 287 kts | 113° |
| 2026-05-09 06:42 | -7.29076 | 112.31216 | 9481 ft | 274 kts | 113° |
| 2026-05-09 06:42 | -7.29743 | 112.32983 | 9025 ft | 267 kts | 103° |
| 2026-05-09 06:42 | -7.30114 | 112.34805 | 8511 ft | 265 kts | 101° |
| 2026-05-09 06:42 | -7.30476 | 112.36616 | 8014 ft | 262 kts | 101° |
| 2026-05-09 06:43 | -7.30836 | 112.38411 | 7536 ft | 260 kts | 101° |
| 2026-05-09 06:43 | -7.31195 | 112.40186 | 7068 ft | 258 kts | 101° |
| 2026-05-09 06:43 | -7.31550 | 112.41948 | 6588 ft | 256 kts | 101° |
| 2026-05-09 06:43 | -7.31903 | 112.43697 | 6106 ft | 254 kts | 101° |
| 2026-05-09 06:44 | -7.32252 | 112.45432 | 5600 ft | 252 kts | 101° |
| 2026-05-09 06:44 | -7.32596 | 112.47138 | 5244 ft | 244 kts | 101° |
| 2026-05-09 06:44 | -7.32930 | 112.48799 | 5053 ft | 241 kts | 101° |
| 2026-05-09 06:44 | -7.33257 | 112.50425 | 4929 ft | 240 kts | 101° |
| 2026-05-09 06:45 | -7.33589 | 112.52070 | 4817 ft | 240 kts | 101° |
| 2026-05-09 06:45 | -7.33912 | 112.53721 | 4557 ft | 242 kts | 100° |
| 2026-05-09 06:45 | -7.34203 | 112.55413 | 4134 ft | 246 kts | 99° |
| 2026-05-09 06:45 | -7.34479 | 112.57116 | 3801 ft | 246 kts | 99° |
| 2026-05-09 06:46 | -7.34755 | 112.58815 | 3473 ft | 244 kts | 99° |
| 2026-05-09 06:46 | -7.35023 | 112.60466 | 3176 ft | 234 kts | 99° |
| 2026-05-09 06:46 | -7.35282 | 112.62056 | 2885 ft | 225 kts | 99° |
| 2026-05-09 06:46 | -7.35530 | 112.63579 | 2605 ft | 216 kts | 99° |
| 2026-05-09 06:47 | -7.35767 | 112.65041 | 2337 ft | 207 kts | 99° |
| 2026-05-09 06:47 | -7.35992 | 112.66420 | 2092 ft | 190 kts | 99° |
| 2026-05-09 06:47 | -7.36194 | 112.67665 | 1867 ft | 169 kts | 99° |
| 2026-05-09 06:47 | -7.36373 | 112.68763 | 1647 ft | 151 kts | 99° |
| 2026-05-09 06:48 | -7.36538 | 112.69777 | 1459 ft | 143 kts | 98° |
| 2026-05-09 06:48 | -7.36696 | 112.70753 | 1279 ft | 140 kts | 98° |
| 2026-05-09 06:48 | -7.36853 | 112.71717 | 1089 ft | 139 kts | 98° |
| 2026-05-09 06:48 | -7.37009 | 112.72679 | 927 ft | 139 kts | 98° |
| 2026-05-09 06:49 | -7.37172 | 112.73633 | 751 ft | 137 kts | 99° |
| 2026-05-09 06:49 | -7.37315 | 112.74574 | 555 ft | 135 kts | 99° |
| 2026-05-09 06:49 | -7.37469 | 112.75512 | 385 ft | 136 kts | 100° |
| 2026-05-09 06:49 | -7.37624 | 112.76447 | 236 ft | 135 kts | 98° |
| 2026-05-09 06:50 | -7.37771 | 112.77388 | 59 ft | 136 kts | 99° |
| 2026-05-09 06:50 | -7.37909 | 112.78237 | 10 ft | 109 kts | 99° |
| 2026-05-09 06:50 | -7.38010 | 112.78856 | 10 ft | 54 kts | 99° |
| 2026-05-09 06:50 | -7.38049 | 112.79098 | 11 ft | 30 kts | 98° |
| 2026-05-09 06:51 | -7.38034 | 112.79260 | 12 ft | 13 kts | 71° |
| 2026-05-09 06:51 | -7.38018 | 112.79306 | 11 ft | 0 kts | 69° |
| 2026-05-09 06:51 | -7.38017 | 112.79306 | 11 ft | 1 kts | 69° |
| 2026-05-09 06:51 | -7.38011 | 112.79323 | 9 ft | 5 kts | 68° |
| 2026-05-09 06:52 | -7.37996 | 112.79363 | 9 ft | 7 kts | 69° |
| 2026-05-09 06:52 | -7.37979 | 112.79396 | 11 ft | 6 kts | 50° |
| 2026-05-09 06:52 | -7.37933 | 112.79416 | 9 ft | 8 kts | 358° |
| 2026-05-09 06:52 | -7.37880 | 112.79420 | 10 ft | 7 kts | 6° |
| 2026-05-09 06:53 | -7.37821 | 112.79430 | 9 ft | 10 kts | 9° |
| 2026-05-09 06:53 | -7.37746 | 112.79442 | 9 ft | 10 kts | 9° |
| 2026-05-09 06:53 | -7.37674 | 112.79455 | 9 ft | 10 kts | 11° |
| 2026-05-09 06:53 | -7.37604 | 112.79467 | 9 ft | 7 kts | 9° |
| 2026-05-09 06:54 | -7.37590 | 112.79469 | 9 ft | 1 kts | 9° |
| 2026-05-09 06:54 | -7.37587 | 112.79469 | 9 ft | 0 kts | 9° |